createdAt,value
2018-12-13T00:02:27.270Z,87.50
2018-12-13T00:04:56.299Z,85.90
2018-12-13T00:07:25.355Z,87.30
2018-12-13T00:09:54.805Z,85.30
2018-12-13T00:12:23.796Z,86.00
2018-12-13T00:14:53.564Z,85.40
2018-12-13T00:17:22.737Z,86.60
2018-12-13T00:19:52.002Z,90.10
2018-12-13T00:22:21.031Z,88.80
2018-12-13T00:24:50.188Z,89.00
2018-12-13T00:27:19.397Z,89.00
2018-12-13T00:29:48.728Z,90.00
2018-12-13T00:32:17.888Z,90.40
2018-12-13T00:34:47.027Z,90.70
2018-12-13T00:37:16.175Z,89.10
2018-12-13T00:39:45.319Z,90.80
2018-12-13T00:42:14.356Z,91.20
2018-12-13T00:44:43.499Z,90.10
2018-12-13T00:47:12.739Z,90.00
2018-12-13T00:49:41.903Z,90.30
2018-12-13T00:52:11.024Z,89.50
2018-12-13T00:54:40.308Z,91.00
2018-12-13T00:57:09.743Z,90.00
2018-12-13T00:59:38.892Z,86.70
2018-12-13T01:02:08.039Z,88.00
2018-12-13T01:04:37.073Z,85.60
2018-12-13T01:07:06.298Z,88.30
2018-12-13T01:09:35.480Z,88.70
2018-12-13T01:12:04.595Z,89.40
2018-12-13T01:14:33.671Z,88.50
2018-12-13T01:17:02.843Z,89.10
2018-12-13T01:19:31.866Z,90.50
2018-12-13T01:22:01.109Z,88.50
2018-12-13T01:24:30.251Z,90.30
2018-12-13T01:26:59.307Z,90.10
2018-12-13T01:29:28.448Z,90.00
2018-12-13T01:31:57.459Z,88.20
2018-12-13T01:34:26.480Z,88.50
2018-12-13T01:36:55.659Z,89.20
2018-12-13T01:39:24.771Z,86.90
2018-12-13T01:41:53.944Z,84.80
2018-12-13T01:44:23.103Z,85.30
2018-12-13T01:46:52.239Z,88.30
2018-12-13T01:49:22.008Z,88.80
2018-12-13T01:51:51.319Z,89.60
2018-12-13T01:54:20.515Z,87.40
2018-12-13T01:56:49.670Z,87.70
2018-12-13T01:59:18.800Z,86.40
2018-12-13T02:01:47.795Z,87.10
2018-12-13T02:04:16.952Z,85.40
2018-12-13T02:06:46.003Z,86.50
2018-12-13T02:09:15.015Z,87.30
2018-12-13T02:11:44.196Z,86.40
2018-12-13T02:14:13.415Z,85.70
2018-12-13T02:16:42.702Z,88.10
2018-12-13T02:19:11.918Z,87.70
2018-12-13T02:21:40.983Z,87.70
2018-12-13T02:24:10.235Z,86.50
2018-12-13T02:26:39.251Z,86.10
2018-12-13T02:29:08.303Z,86.20
2018-12-13T02:31:37.464Z,86.70
2018-12-13T02:34:06.765Z,86.70
2018-12-13T02:36:36.118Z,85.20
2018-12-13T02:39:06.403Z,87.80
2018-12-13T02:41:35.466Z,87.20
2018-12-13T02:44:04.695Z,85.00
2018-12-13T02:46:33.870Z,85.90
2018-12-13T02:49:08.133Z,85.00
2018-12-13T02:51:38.179Z,88.70
2018-12-13T02:54:07.444Z,87.50
2018-12-13T02:56:36.525Z,85.90
2018-12-13T02:59:05.654Z,88.50
2018-12-13T03:01:35.671Z,91.20
2018-12-13T03:04:04.999Z,94.00
2018-12-13T03:06:34.063Z,92.70
2018-12-13T03:09:03.310Z,92.80
2018-12-13T03:11:32.439Z,91.20
2018-12-13T03:14:01.628Z,89.10
2018-12-13T03:16:30.676Z,90.50
2018-12-13T03:18:59.712Z,92.20
2018-12-13T03:21:28.743Z,92.10
2018-12-13T03:23:57.917Z,91.40
2018-12-13T03:26:27.157Z,88.00
2018-12-13T03:28:56.411Z,88.40
2018-12-13T03:31:25.551Z,89.40
2018-12-13T03:33:54.802Z,86.00
2018-12-13T03:36:23.931Z,89.80
2018-12-13T03:38:52.993Z,92.00
2018-12-13T03:41:22.216Z,91.00
2018-12-13T03:43:51.722Z,90.30
2018-12-13T03:46:21.043Z,92.50
2018-12-13T03:48:51.243Z,92.00
2018-12-13T03:51:20.463Z,91.30
2018-12-13T03:53:49.602Z,91.80
2018-12-13T03:56:18.736Z,91.40
2018-12-13T03:58:47.999Z,90.50
2018-12-13T04:01:17.033Z,91.10
2018-12-13T04:03:46.306Z,90.20
2018-12-13T04:06:15.415Z,92.50
2018-12-13T04:08:44.934Z,90.70
2018-12-13T04:11:14.641Z,93.60
2018-12-13T04:13:43.800Z,91.40
2018-12-13T04:16:12.947Z,94.10
2018-12-13T04:18:41.971Z,91.90
2018-12-13T04:21:11.140Z,92.60
2018-12-13T04:23:40.275Z,91.90
2018-12-13T04:26:09.405Z,92.30
2018-12-13T04:28:38.467Z,91.40
2018-12-13T04:31:07.603Z,91.20
2018-12-13T04:33:36.751Z,91.30
2018-12-13T04:36:05.797Z,92.00
2018-12-13T04:38:34.960Z,92.80
2018-12-13T04:41:04.170Z,92.10
2018-12-13T04:43:33.215Z,92.80
2018-12-13T04:46:02.465Z,92.70
2018-12-13T04:48:31.539Z,94.00
2018-12-13T04:51:00.652Z,94.30
2018-12-13T04:53:29.734Z,94.10
2018-12-13T04:55:58.863Z,92.30
2018-12-13T04:58:28.255Z,92.40
2018-12-13T05:00:57.410Z,94.00
2018-12-13T05:03:26.551Z,92.50
2018-12-13T05:05:55.599Z,91.70
2018-12-13T05:08:24.733Z,92.80
2018-12-13T05:10:56.020Z,92.10
2018-12-13T05:13:25.277Z,91.50
2018-12-13T05:15:54.496Z,94.10
2018-12-13T05:18:23.689Z,92.40
2018-12-13T05:20:52.893Z,93.20
2018-12-13T05:23:22.118Z,93.00
2018-12-13T05:25:51.392Z,92.70
2018-12-13T05:28:20.471Z,93.00
2018-12-13T05:30:49.982Z,92.20
2018-12-13T05:33:19.174Z,89.90
2018-12-13T05:35:48.220Z,88.10
2018-12-13T05:38:17.476Z,90.50
2018-12-13T05:40:46.523Z,90.30
2018-12-13T05:43:15.536Z,90.30
2018-12-13T05:45:44.605Z,90.80
2018-12-13T05:48:13.620Z,89.90
2018-12-13T05:50:42.698Z,88.50
2018-12-13T05:53:11.943Z,89.60
2018-12-13T05:55:40.974Z,88.40
2018-12-13T05:58:10.011Z,87.60
2018-12-13T06:00:39.331Z,86.50
2018-12-13T06:03:08.513Z,86.10
2018-12-13T06:05:37.730Z,87.20
2018-12-13T06:08:07.383Z,86.10
2018-12-13T06:10:36.513Z,87.30
2018-12-13T06:13:05.880Z,86.00
2018-12-13T06:15:35.128Z,85.10
2018-12-13T06:18:06.977Z,87.20
2018-12-13T06:20:35.369Z,87.70
2018-12-13T06:23:04.505Z,85.20
2018-12-13T06:25:33.642Z,87.50
2018-12-13T06:28:02.697Z,86.50
2018-12-13T06:30:31.947Z,85.70
2018-12-13T06:33:01.098Z,82.50
2018-12-13T06:35:30.339Z,86.10
2018-12-13T06:38:01.385Z,86.30
2018-12-13T06:40:30.551Z,85.30
2018-12-13T06:42:59.728Z,84.50
2018-12-13T06:45:28.853Z,83.90
2018-12-13T06:47:58.019Z,83.90
2018-12-13T06:50:27.374Z,85.80
2018-12-13T06:52:56.577Z,85.40
2018-12-13T06:55:25.764Z,84.20
2018-12-13T06:57:55.220Z,85.60
2018-12-13T07:00:24.364Z,84.60
2018-12-13T07:02:53.516Z,83.90
2018-12-13T07:05:22.734Z,83.60
2018-12-13T07:07:51.892Z,81.90
2018-12-13T07:10:20.984Z,85.20
2018-12-13T07:12:49.990Z,85.70
2018-12-13T07:15:19.009Z,81.20
2018-12-13T07:17:48.181Z,86.80
2018-12-13T07:20:17.338Z,86.10
2018-12-13T07:22:46.464Z,85.90
2018-12-13T07:25:15.605Z,87.80
2018-12-13T07:27:44.768Z,87.50
2018-12-13T07:30:14.020Z,85.20
2018-12-13T07:32:43.211Z,89.60
2018-12-13T07:35:12.411Z,87.30
2018-12-13T07:37:41.560Z,90.00
2018-12-13T07:40:10.616Z,90.40
2018-12-13T07:42:39.769Z,88.50
2018-12-13T07:45:09.048Z,90.80
2018-12-13T07:47:38.492Z,87.80
2018-12-13T07:50:08.283Z,89.30
2018-12-13T07:52:37.503Z,90.10
2018-12-13T07:55:07.219Z,88.60
2018-12-13T07:57:36.901Z,90.50
2018-12-13T08:00:08.438Z,84.50
2018-12-13T08:02:37.837Z,90.80
2018-12-13T08:05:08.031Z,90.10
2018-12-13T08:07:37.089Z,89.60
2018-12-13T08:10:06.531Z,92.50
2018-12-13T08:12:35.668Z,91.90
2018-12-13T08:15:05.851Z,88.20
2018-12-13T08:17:35.107Z,91.80
2018-12-13T08:20:04.788Z,90.00
2018-12-13T08:22:33.995Z,90.50
2018-12-13T08:25:03.271Z,92.30
2018-12-13T08:27:32.395Z,92.00
2018-12-13T08:30:01.604Z,90.30
2018-12-13T08:32:30.680Z,89.50
2018-12-13T08:34:59.964Z,90.40
2018-12-13T08:37:29.282Z,86.30
2018-12-13T08:39:58.874Z,91.70
2018-12-13T08:42:28.008Z,92.30
2018-12-13T08:44:57.048Z,92.10
2018-12-13T08:47:26.273Z,90.30
2018-12-13T08:49:56.729Z,86.10
2018-12-13T08:52:26.011Z,86.40
2018-12-13T08:54:55.161Z,90.40
2018-12-13T08:57:24.307Z,88.80
2018-12-13T08:59:53.472Z,89.80
2018-12-13T09:02:22.709Z,90.20
2018-12-13T09:04:53.013Z,90.80
2018-12-13T09:07:22.235Z,87.70
2018-12-13T09:09:51.295Z,91.50
2018-12-13T09:12:20.519Z,90.90
2018-12-13T09:14:49.579Z,87.80
2018-12-13T09:17:18.627Z,90.50
2018-12-13T09:19:47.675Z,90.00
2018-12-13T09:22:16.851Z,90.60
2018-12-13T09:24:46.273Z,90.30
2018-12-13T09:27:16.717Z,91.40
2018-12-13T09:29:46.008Z,87.00
2018-12-13T09:32:15.304Z,91.80
2018-12-13T09:34:44.608Z,89.90
2018-12-13T09:37:13.784Z,89.60
2018-12-13T09:39:42.822Z,87.40
2018-12-13T09:42:12.286Z,87.00
2018-12-13T09:44:41.323Z,84.20
2018-12-13T09:47:10.638Z,82.90
2018-12-13T09:49:39.965Z,83.40
2018-12-13T09:52:09.575Z,80.40
2018-12-13T09:54:38.839Z,77.60
2018-12-13T09:57:08.219Z,83.30
2018-12-13T09:59:37.707Z,82.50
2018-12-13T10:02:07.029Z,80.20
2018-12-13T10:04:36.094Z,78.80
2018-12-13T10:07:05.521Z,79.50
2018-12-13T10:09:34.771Z,81.10
2018-12-13T10:12:03.919Z,78.30
2018-12-13T10:14:32.956Z,80.30
2018-12-13T10:17:01.983Z,78.40
2018-12-13T10:19:31.346Z,79.30
2018-12-13T10:22:00.803Z,78.30
2018-12-13T10:24:30.391Z,78.80
2018-12-13T10:27:00.129Z,80.00
2018-12-13T10:29:29.708Z,80.40
2018-12-13T10:31:59.236Z,83.90
2018-12-13T10:34:28.535Z,85.50
2018-12-13T10:36:57.741Z,82.70
2018-12-13T10:39:27.092Z,81.00
2018-12-13T10:41:56.328Z,86.50
2018-12-13T10:44:30.848Z,86.80
2018-12-13T10:47:00.438Z,85.20
2018-12-13T10:49:29.574Z,80.10
2018-12-13T10:51:58.719Z,81.10
2018-12-13T10:54:27.787Z,80.30
2018-12-13T10:56:56.925Z,84.80
2018-12-13T10:59:26.076Z,82.50
2018-12-13T11:02:00.340Z,83.60
2018-12-13T11:04:29.704Z,81.50
2018-12-13T11:06:58.901Z,83.70
2018-12-13T11:09:28.140Z,83.10
2018-12-13T11:11:57.285Z,86.90
2018-12-13T11:14:26.281Z,83.80
2018-12-13T11:16:55.251Z,80.10
2018-12-13T11:19:24.538Z,77.90
2018-12-13T11:21:53.604Z,86.20
2018-12-13T11:24:22.822Z,80.30
2018-12-13T11:26:51.999Z,85.40
2018-12-13T11:29:32.500Z,84.20
2018-12-13T11:32:02.057Z,75.60
2018-12-13T11:34:31.012Z,85.00
2018-12-13T11:37:00.062Z,76.20
2018-12-13T11:39:29.116Z,81.30
2018-12-13T11:41:58.266Z,83.90
2018-12-13T11:44:27.504Z,78.40
2018-12-13T11:46:56.631Z,78.80
2018-12-13T11:49:25.822Z,88.20
2018-12-13T11:51:54.927Z,79.90
2018-12-13T11:54:46.135Z,81.10
2018-12-13T11:57:15.331Z,86.00
2018-12-13T11:59:44.503Z,81.40
2018-12-13T12:02:13.620Z,77.70
2018-12-13T12:04:42.843Z,80.90
2018-12-13T12:07:11.715Z,79.90
2018-12-13T12:09:40.640Z,88.30
2018-12-13T12:12:09.922Z,78.50
2018-12-13T12:14:38.967Z,80.70
2018-12-13T12:17:08.115Z,78.90
2018-12-13T12:19:37.161Z,81.60
2018-12-13T12:22:06.358Z,79.60
2018-12-13T12:24:35.368Z,79.70
2018-12-13T12:27:04.432Z,86.70
2018-12-13T12:29:33.837Z,80.00
2018-12-13T12:32:03.060Z,81.20
2018-12-13T12:34:32.500Z,79.70
2018-12-13T12:37:01.956Z,78.20
2018-12-13T12:39:31.112Z,84.30
2018-12-13T12:42:00.231Z,85.50
2018-12-13T12:44:35.145Z,80.10
2018-12-13T12:47:04.260Z,79.40
2018-12-13T12:49:33.361Z,78.80
2018-12-13T12:52:02.592Z,78.60
2018-12-13T12:54:33.332Z,81.10
2018-12-13T12:57:02.848Z,78.50
2018-12-13T12:59:32.031Z,80.50
2018-12-13T13:02:01.171Z,81.10
2018-12-13T13:04:30.304Z,81.20
2018-12-13T13:06:59.367Z,86.00
2018-12-13T13:09:28.503Z,85.40
2018-12-13T13:11:58.092Z,86.50
2018-12-13T13:14:27.432Z,76.40
2018-12-13T13:16:57.695Z,78.80
2018-12-13T13:19:26.876Z,77.30
2018-12-13T13:21:56.170Z,83.60
2018-12-13T13:24:25.460Z,81.00
2018-12-13T13:26:54.624Z,85.40
2018-12-13T13:29:23.728Z,80.80
2018-12-13T13:31:52.983Z,80.60
2018-12-13T13:34:22.116Z,83.70
2018-12-13T13:36:51.279Z,82.40
2018-12-13T13:39:20.523Z,87.00
2018-12-13T13:41:49.680Z,83.00
2018-12-13T13:44:19.367Z,80.10
2018-12-13T13:46:48.530Z,80.60
2018-12-13T13:49:17.691Z,76.60
2018-12-13T13:51:47.581Z,79.90
2018-12-13T13:54:17.127Z,82.00
2018-12-13T13:56:46.672Z,82.10
2018-12-13T13:59:16.137Z,84.40
2018-12-13T14:01:45.676Z,80.20
2018-12-13T14:04:15.234Z,78.90
2018-12-13T14:06:44.507Z,81.60
2018-12-13T14:09:14.088Z,81.30
2018-12-13T14:11:43.471Z,79.20
2018-12-13T14:14:12.626Z,79.80
2018-12-13T14:16:41.867Z,86.60
2018-12-13T14:19:11.255Z,79.70
2018-12-13T14:21:40.549Z,79.90
2018-12-13T14:24:09.867Z,86.60
2018-12-13T14:26:39.068Z,83.00
2018-12-13T14:29:08.319Z,84.40
2018-12-13T14:31:37.437Z,79.80
2018-12-13T14:34:06.662Z,81.00
2018-12-13T14:36:35.721Z,84.30
2018-12-13T14:39:07.162Z,83.20
2018-12-13T14:41:36.493Z,79.70
2018-12-13T14:44:05.551Z,82.20
2018-12-13T14:46:34.574Z,79.40
2018-12-13T14:49:03.946Z,81.90
2018-12-13T14:51:33.395Z,84.80
2018-12-13T14:54:03.620Z,80.50
2018-12-13T14:56:32.884Z,79.90
2018-12-13T14:59:02.066Z,82.70
2018-12-13T15:01:31.202Z,81.40
2018-12-13T15:04:00.716Z,84.40
2018-12-13T15:06:30.286Z,83.50
2018-12-13T15:08:59.451Z,86.10
2018-12-13T15:11:28.800Z,89.00
2018-12-13T15:13:58.229Z,82.70
2018-12-13T15:16:27.312Z,87.60
2018-12-13T15:18:56.448Z,89.60
2018-12-13T15:21:25.757Z,79.40
2018-12-13T15:23:55.108Z,83.80
2018-12-13T15:26:24.795Z,83.10
2018-12-13T15:28:53.892Z,81.60
2018-12-13T15:31:23.112Z,85.90
2018-12-13T15:33:52.181Z,83.30
2018-12-13T15:36:21.338Z,83.50
2018-12-13T15:38:50.607Z,81.40
2018-12-13T15:41:19.864Z,85.20
2018-12-13T15:43:49.088Z,88.60
2018-12-13T15:46:18.139Z,86.10
2018-12-13T15:48:47.161Z,90.10
2018-12-13T15:51:16.221Z,84.00
2018-12-13T15:53:46.639Z,84.80
2018-12-13T15:56:15.950Z,86.20
2018-12-13T15:58:45.076Z,84.80
2018-12-13T16:01:14.136Z,78.80
2018-12-13T16:03:43.279Z,84.70
2018-12-13T16:06:12.324Z,82.40
2018-12-13T16:08:41.368Z,90.00
2018-12-13T16:11:10.417Z,87.10
2018-12-13T16:13:39.427Z,87.40
2018-12-13T16:16:08.620Z,82.70
2018-12-13T16:18:37.741Z,83.50
2018-12-13T16:21:06.853Z,84.30
2018-12-13T16:23:36.046Z,80.30
2018-12-13T16:26:05.108Z,86.60
2018-12-13T16:28:34.852Z,83.60
2018-12-13T16:31:04.003Z,84.80
2018-12-13T16:33:33.448Z,86.40
2018-12-13T16:36:02.544Z,85.00
2018-12-13T16:38:31.757Z,82.80
2018-12-13T16:41:00.896Z,76.80
2018-12-13T16:43:29.868Z,87.50
2018-12-13T16:45:59.228Z,80.10
2018-12-13T16:48:28.427Z,84.00
2018-12-13T16:50:57.724Z,80.50
2018-12-13T16:53:26.995Z,83.90
2018-12-13T16:55:56.111Z,83.10
2018-12-13T16:58:25.272Z,85.50
2018-12-13T17:00:54.525Z,88.80
2018-12-13T17:03:37.492Z,87.20
2018-12-13T17:06:06.829Z,83.80
2018-12-13T17:08:36.100Z,89.30
2018-12-13T17:11:05.623Z,84.00
2018-12-13T17:13:34.894Z,83.60
2018-12-13T17:16:04.003Z,83.70
2018-12-13T17:18:33.178Z,82.20
2018-12-13T17:21:02.219Z,77.20
2018-12-13T17:23:31.280Z,84.50
2018-12-13T17:26:00.298Z,82.10
2018-12-13T17:28:29.349Z,87.50
2018-12-13T17:30:58.383Z,82.60
2018-12-13T17:33:27.748Z,84.60
2018-12-13T17:35:56.903Z,83.80
2018-12-13T17:38:26.415Z,80.00
2018-12-13T17:40:55.476Z,81.90
2018-12-13T17:43:24.547Z,81.30
2018-12-13T17:45:53.668Z,78.80
2018-12-13T17:48:23.430Z,80.60
2018-12-13T17:50:52.575Z,80.80
2018-12-13T17:53:21.623Z,80.00
2018-12-13T17:55:50.864Z,79.10
2018-12-13T17:58:19.943Z,78.70
2018-12-13T18:00:49.166Z,78.30
2018-12-13T18:03:18.212Z,78.20
2018-12-13T18:05:47.356Z,78.00
2018-12-13T18:08:16.878Z,77.90
2018-12-13T18:10:46.546Z,77.80
2018-12-13T18:13:16.060Z,77.70
2018-12-13T18:15:45.599Z,78.00
2018-12-13T18:18:15.192Z,77.80
2018-12-13T18:20:44.288Z,78.00
2018-12-13T18:23:13.587Z,78.10
2018-12-13T18:25:42.623Z,78.40
2018-12-13T18:28:11.980Z,76.70
2018-12-13T18:30:41.236Z,79.60
2018-12-13T18:33:10.383Z,79.30
2018-12-13T18:35:39.430Z,79.20
2018-12-13T18:38:08.446Z,79.60
2018-12-13T18:40:38.282Z,79.30
2018-12-13T18:43:07.444Z,79.30
2018-12-13T18:45:37.403Z,79.00
2018-12-13T18:48:07.441Z,78.80
2018-12-13T18:50:36.602Z,77.90
2018-12-13T18:53:05.677Z,78.00
2018-12-13T18:55:34.887Z,77.90
2018-12-13T18:58:04.262Z,77.30
2018-12-13T19:00:33.332Z,78.00
2018-12-13T19:03:02.350Z,78.40
2018-12-13T19:05:31.625Z,78.80
2018-12-13T19:08:01.085Z,78.60
2018-12-13T19:10:30.228Z,78.80
2018-12-13T19:12:59.276Z,78.90
2018-12-13T19:15:28.550Z,78.70
2018-12-13T19:17:57.774Z,79.00
2018-12-13T19:20:27.276Z,78.30
2018-12-13T19:22:57.084Z,77.20
2018-12-13T19:25:27.744Z,76.90
2018-12-13T19:27:57.813Z,76.60
2018-12-13T19:30:27.449Z,76.30
2018-12-13T19:32:57.743Z,76.10
2018-12-13T19:35:27.157Z,76.00
2018-12-13T19:37:56.956Z,76.10
2018-12-13T19:40:26.389Z,72.80
2018-12-13T19:42:55.534Z,79.00
2018-12-13T19:45:24.652Z,78.10
2018-12-13T19:47:53.820Z,74.20
2018-12-13T19:50:23.064Z,79.90
2018-12-13T19:52:52.112Z,75.90
2018-12-13T19:55:21.834Z,80.70
2018-12-13T19:57:50.903Z,76.60
2018-12-13T20:00:20.037Z,74.50
2018-12-13T20:02:49.068Z,82.30
2018-12-13T20:05:18.131Z,80.00
2018-12-13T20:07:47.426Z,82.30
2018-12-13T20:10:16.526Z,80.80
2018-12-13T20:12:45.592Z,80.10
2018-12-13T20:15:14.834Z,79.80
2018-12-13T20:17:44.143Z,76.10
2018-12-13T20:20:13.263Z,82.20
2018-12-13T20:22:42.384Z,81.70
2018-12-13T20:25:11.401Z,80.30
2018-12-13T20:27:40.467Z,79.80
2018-12-13T20:30:10.416Z,80.80
2018-12-13T20:32:39.476Z,79.50
2018-12-13T20:35:08.755Z,80.10
2018-12-13T20:37:38.522Z,79.10
2018-12-13T20:40:08.322Z,79.70
2018-12-13T20:42:37.440Z,80.00
2018-12-13T20:45:08.080Z,79.50
2018-12-13T20:47:37.675Z,78.80
2018-12-13T20:50:07.700Z,78.80
2018-12-13T20:52:37.384Z,78.60
2018-12-13T20:55:07.444Z,78.20
2018-12-13T20:57:36.475Z,78.10
2018-12-13T21:00:08.464Z,78.30
2018-12-13T21:02:37.699Z,78.10
2018-12-13T21:05:07.392Z,78.00
2018-12-13T21:07:36.705Z,78.60
2018-12-13T21:10:09.292Z,77.90
2018-12-13T21:12:38.612Z,77.90
2018-12-13T21:15:09.232Z,77.70
2018-12-13T21:17:38.521Z,78.10
2018-12-13T21:20:07.956Z,78.20
2018-12-13T21:22:37.105Z,78.00
2018-12-13T21:25:06.459Z,78.30
2018-12-13T21:27:35.599Z,78.70
2018-12-13T21:30:05.708Z,79.20
2018-12-13T21:32:35.012Z,79.00
2018-12-13T21:35:04.428Z,79.20
2018-12-13T21:37:33.617Z,77.80
2018-12-13T21:40:02.979Z,79.70
2018-12-13T21:42:32.107Z,79.60
2018-12-13T21:45:01.158Z,78.70
2018-12-13T21:47:30.303Z,78.10
2018-12-13T21:49:59.460Z,78.10
2018-12-13T21:52:28.576Z,78.40
2018-12-13T21:54:57.735Z,78.70
2018-12-13T21:57:27.708Z,79.20
2018-12-13T21:59:56.810Z,78.70
2018-12-13T22:02:25.885Z,77.90
2018-12-13T22:04:54.935Z,79.90
2018-12-13T22:07:23.985Z,75.30
2018-12-13T22:09:53.775Z,81.50
2018-12-13T22:12:23.068Z,80.80
2018-12-13T22:14:52.359Z,80.50
2018-12-13T22:17:21.479Z,80.20
2018-12-13T22:19:50.587Z,79.70
2018-12-13T22:22:20.391Z,79.20
2018-12-13T22:24:49.653Z,78.90
2018-12-13T22:27:18.688Z,78.00
2018-12-13T22:29:47.763Z,79.10
2018-12-13T22:32:16.944Z,78.40
2018-12-13T22:34:45.987Z,78.90
2018-12-13T22:37:15.184Z,78.30
2018-12-13T22:39:44.260Z,79.20
2018-12-13T22:42:13.563Z,79.10
2018-12-13T22:44:43.120Z,79.10
2018-12-13T22:47:12.307Z,78.90
2018-12-13T22:49:41.576Z,78.60
2018-12-13T22:52:10.737Z,78.40
2018-12-13T22:54:39.944Z,78.20
2018-12-13T22:57:09.104Z,78.10
2018-12-13T22:59:38.160Z,78.00
2018-12-13T23:02:07.385Z,79.00
2018-12-13T23:04:36.631Z,78.40
2018-12-13T23:07:05.695Z,78.50
2018-12-13T23:09:34.829Z,78.50
2018-12-13T23:12:04.074Z,78.00
2018-12-13T23:14:33.111Z,78.80
2018-12-13T23:17:02.321Z,78.80
2018-12-13T23:19:31.379Z,78.70
2018-12-13T23:22:00.464Z,78.50
2018-12-13T23:24:30.075Z,78.60
2018-12-13T23:26:59.269Z,78.30
2018-12-13T23:29:28.401Z,79.10
2018-12-13T23:31:57.448Z,78.70
2018-12-13T23:34:26.485Z,78.60
2018-12-13T23:36:55.640Z,78.20
2018-12-13T23:39:24.770Z,80.80
2018-12-13T23:41:53.841Z,80.90
2018-12-13T23:44:22.843Z,80.00
2018-12-13T23:46:51.925Z,80.00
2018-12-13T23:49:21.169Z,79.10
2018-12-13T23:51:50.301Z,79.30
2018-12-13T23:54:19.992Z,80.10
2018-12-13T23:56:49.045Z,81.20
2018-12-13T23:59:18.274Z,80.10
